Ben Hur, Texas
Current Conditions -  °F | °C
As of 8:52 PM on Sunday 19 Oct 2014 (Local Time) from KCNW Reporting Station
Clear Clear  
Wind Chill: 68°   Ceiling: Unl
Heat Index: 68°   Visibility: 10mi
Dew Point: 61°   Wind: 0mph
Humidity: 78%   Direction: NA
Pressure: 30.06"   Gusts: NA
Location:  31.5521°N, 96.8628°W
Report Text: KCNW 200152Z 00000KT 10SM SKC 20/16 A3006
Loading
Personal Weather Stations






























Interactive Weather Map
Tropical Storm Tracking
New forecast layout! Learn more

10-Day Weather Forecast

Advertisements
Track Severe Weather on mobile